Airfield :
LOGIN :

Register | Disclaimer

   EN    FR    IT 

 










Legend :    VFR   Marginal VFR   IFR   Intensive IFR   Very Intensive IFR
Visi :
Ceiling :
>= 8 km
>= 3000ft
5 to 8 km
1000 to 3000 ft
1500m to 5 km
500 to 1000 ft
800 to 1500m
200 to 500 ft
< 800m
< 200 ft
Symbols :   Thunderstorms  Fog  Heavy snow  Heavy precipitations  Wind > 20 kt
SIGMETs :     Misc.  Thunderstorms  Icing  Turbulence  Mountain Waves  Volcanic Ashes







- Airport Elevation : 375 ft
- IATA code : MST


EHBK - Maastricht Aachen

CURRENT METAR :
  • 290325Z AUTO VRB02KT 7000 FEW015CB 19/18 Q1014

EXPIRED METARs :
  • 290255Z AUTO 05003KT 010V080 9999 -RA FEW015CB 20/18 Q1014
  • 290225Z AUTO 03004KT 9999 FEW015CB 19/17 Q1014
  • 290155Z AUTO 04004KT 9999 NSC 19/17 Q1014
  • 290125Z AUTO 08004KT 9999 NSC 20/17 Q1014

TAF TAF EHBK
Valid from the 29 at 00:00 until the 30 at 06:00 UTC


282315Z 2900/3006 08005KT CAVOK
BECMG 2909/2912 24010KT
PROB40
TEMPO 2916/2924 4000 SHRA TSRAGR BKN020 BKN050CB
No reported NOTAMs for that airfield.
1 SIGMET reported for the Amsterdam FIR (EHAA) :
 
Embedded thunderstorms
EHAA SIGMET 1 VALID 290218/290618 EHDB
EHAA AMSTERDAM FIR EMBD TS OBS WI N5129 E00159 - N5122 E00322 - N5235 E00253 - N5129 E00159 TOP ABV FL400 MOV NNE 20KT NC=



MET'MAP, your aeronautical weather chart ! - Copyright ORBIFLY December 2007 - Disclaimer

ORBIFLY MET'MAP TEAM :

Programming & Development : Alexandra Zaïnal
Concept & Development : Baudouin d'Aumeries
Co-Development & Prog : Marc-Olivier Méhu
Technical & hardware support : Manuel Goepfert

Contact : metmap@orbifly.com




SOURCES & CREDITS :

   NOAA